sensor_id;sensor_type;location;lat;lon;timestamp;P1;durP1;ratioP1;P2;durP2;ratioP2
13026;SDS011;6580;42.680;23.324;2022-10-15T00:00:27;6.03;;;5.03;;
13026;SDS011;6580;42.680;23.324;2022-10-15T00:02:57;5.10;;;4.60;;
13026;SDS011;6580;42.680;23.324;2022-10-15T00:05:24;5.43;;;4.60;;
13026;SDS011;6580;42.680;23.324;2022-10-15T00:07:51;4.90;;;4.40;;
13026;SDS011;6580;42.680;23.324;2022-10-15T00:10:18;5.20;;;4.70;;
13026;SDS011;6580;42.680;23.324;2022-10-15T00:12:46;5.03;;;4.50;;
13026;SDS011;6580;42.680;23.324;2022-10-15T00:15:13;4.90;;;4.50;;
13026;SDS011;6580;42.680;23.324;2022-10-15T00:17:41;6.97;;;5.10;;
13026;SDS011;6580;42.680;23.324;2022-10-15T00:20:09;5.47;;;4.63;;
13026;SDS011;6580;42.680;23.324;2022-10-15T00:22:37;5.13;;;4.60;;
13026;SDS011;6580;42.680;23.324;2022-10-15T00:25:05;4.67;;;4.27;;
13026;SDS011;6580;42.680;23.324;2022-10-15T00:27:33;4.50;;;4.10;;
13026;SDS011;6580;42.680;23.324;2022-10-15T00:30:00;4.90;;;4.40;;
13026;SDS011;6580;42.680;23.324;2022-10-15T00:32:28;5.57;;;4.63;;
13026;SDS011;6580;42.680;23.324;2022-10-15T00:34:56;5.47;;;4.33;;
13026;SDS011;6580;42.680;23.324;2022-10-15T00:37:23;5.07;;;4.57;;
13026;SDS011;6580;42.680;23.324;2022-10-15T00:39:50;5.83;;;4.77;;
13026;SDS011;6580;42.680;23.324;2022-10-15T00:42:17;5.03;;;4.50;;
13026;SDS011;6580;42.680;23.324;2022-10-15T00:44:54;4.70;;;4.20;;
13026;SDS011;6580;42.680;23.324;2022-10-15T00:47:24;5.07;;;4.57;;
13026;SDS011;6580;42.680;23.324;2022-10-15T00:49:59;5.13;;;4.60;;
13026;SDS011;6580;42.680;23.324;2022-10-15T00:52:31;6.03;;;4.77;;
13026;SDS011;6580;42.680;23.324;2022-10-15T00:55:05;6.43;;;4.97;;
13026;SDS011;6580;42.680;23.324;2022-10-15T00:57:36;6.27;;;4.70;;
13026;SDS011;6580;42.680;23.324;2022-10-15T01:00:07;5.27;;;4.77;;
13026;SDS011;6580;42.680;23.324;2022-10-15T01:02:36;5.87;;;4.63;;
13026;SDS011;6580;42.680;23.324;2022-10-15T01:05:04;7.03;;;4.93;;
13026;SDS011;6580;42.680;23.324;2022-10-15T01:07:32;5.10;;;4.60;;
13026;SDS011;6580;42.680;23.324;2022-10-15T01:10:01;5.90;;;5.30;;
13026;SDS011;6580;42.680;23.324;2022-10-15T01:12:33;6.07;;;5.30;;
13026;SDS011;6580;42.680;23.324;2022-10-15T01:15:13;6.17;;;4.97;;
13026;SDS011;6580;42.680;23.324;2022-10-15T01:17:45;9.43;;;4.93;;
13026;SDS011;6580;42.680;23.324;2022-10-15T01:23:29;4.80;;;4.37;;
13026;SDS011;6580;42.680;23.324;2022-10-15T01:26:13;9.40;;;5.30;;
13026;SDS011;6580;42.680;23.324;2022-10-15T01:29:02;6.03;;;5.43;;
13026;SDS011;6580;42.680;23.324;2022-10-15T01:31:41;5.53;;;4.97;;
13026;SDS011;6580;42.680;23.324;2022-10-15T01:34:14;4.33;;;3.93;;
13026;SDS011;6580;42.680;23.324;2022-10-15T01:36:49;5.50;;;5.00;;
13026;SDS011;6580;42.680;23.324;2022-10-15T01:39:24;5.43;;;4.97;;
13026;SDS011;6580;42.680;23.324;2022-10-15T01:41:58;5.57;;;5.07;;
13026;SDS011;6580;42.680;23.324;2022-10-15T01:44:28;5.63;;;5.03;;
13026;SDS011;6580;42.680;23.324;2022-10-15T01:47:02;5.60;;;5.00;;
13026;SDS011;6580;42.680;23.324;2022-10-15T01:49:30;5.77;;;4.73;;
13026;SDS011;6580;42.680;23.324;2022-10-15T01:52:01;5.57;;;5.00;;
13026;SDS011;6580;42.680;23.324;2022-10-15T01:54:32;6.13;;;4.97;;
13026;SDS011;6580;42.680;23.324;2022-10-15T01:57:00;7.23;;;5.00;;
13026;SDS011;6580;42.680;23.324;2022-10-15T01:59:29;5.53;;;4.83;;
13026;SDS011;6580;42.680;23.324;2022-10-15T02:01:58;5.67;;;4.77;;
13026;SDS011;6580;42.680;23.324;2022-10-15T02:04:27;5.00;;;4.60;;
13026;SDS011;6580;42.680;23.324;2022-10-15T02:06:57;7.13;;;4.77;;
13026;SDS011;6580;42.680;23.324;2022-10-15T02:09:32;5.60;;;5.07;;
13026;SDS011;6580;42.680;23.324;2022-10-15T02:12:08;5.90;;;5.10;;
13026;SDS011;6580;42.680;23.324;2022-10-15T02:14:42;5.53;;;5.03;;
13026;SDS011;6580;42.680;23.324;2022-10-15T02:17:16;6.60;;;5.17;;
13026;SDS011;6580;42.680;23.324;2022-10-15T02:19:50;6.43;;;5.40;;
13026;SDS011;6580;42.680;23.324;2022-10-15T02:22:21;5.70;;;5.20;;
13026;SDS011;6580;42.680;23.324;2022-10-15T02:24:56;5.80;;;5.30;;
13026;SDS011;6580;42.680;23.324;2022-10-15T02:27:29;7.73;;;5.27;;
13026;SDS011;6580;42.680;23.324;2022-10-15T02:29:59;6.00;;;5.27;;
13026;SDS011;6580;42.680;23.324;2022-10-15T02:32:31;5.50;;;4.90;;
13026;SDS011;6580;42.680;23.324;2022-10-15T02:35:02;5.97;;;5.30;;
13026;SDS011;6580;42.680;23.324;2022-10-15T02:37:48;6.03;;;5.10;;
13026;SDS011;6580;42.680;23.324;2022-10-15T02:40:18;6.30;;;5.57;;
13026;SDS011;6580;42.680;23.324;2022-10-15T02:42:51;5.53;;;5.00;;
13026;SDS011;6580;42.680;23.324;2022-10-15T02:45:18;5.77;;;5.27;;
13026;SDS011;6580;42.680;23.324;2022-10-15T02:47:45;5.80;;;5.33;;
13026;SDS011;6580;42.680;23.324;2022-10-15T02:50:16;6.27;;;5.40;;
13026;SDS011;6580;42.680;23.324;2022-10-15T02:52:43;5.40;;;4.90;;
13026;SDS011;6580;42.680;23.324;2022-10-15T02:55:09;5.43;;;4.93;;
13026;SDS011;6580;42.680;23.324;2022-10-15T02:57:36;5.30;;;4.80;;
13026;SDS011;6580;42.680;23.324;2022-10-15T03:00:04;5.70;;;5.20;;
13026;SDS011;6580;42.680;23.324;2022-10-15T03:02:31;5.17;;;4.77;;
13026;SDS011;6580;42.680;23.324;2022-10-15T03:04:58;5.70;;;5.20;;
13026;SDS011;6580;42.680;23.324;2022-10-15T03:07:27;7.70;;;5.30;;
13026;SDS011;6580;42.680;23.324;2022-10-15T03:09:55;6.03;;;5.47;;
13026;SDS011;6580;42.680;23.324;2022-10-15T03:12:22;5.83;;;5.23;;
13026;SDS011;6580;42.680;23.324;2022-10-15T03:14:50;6.43;;;5.10;;
13026;SDS011;6580;42.680;23.324;2022-10-15T03:17:17;6.10;;;5.50;;
13026;SDS011;6580;42.680;23.324;2022-10-15T03:19:44;5.83;;;5.20;;
13026;SDS011;6580;42.680;23.324;2022-10-15T03:22:10;6.13;;;5.53;;
13026;SDS011;6580;42.680;23.324;2022-10-15T03:24:39;5.43;;;4.90;;
13026;SDS011;6580;42.680;23.324;2022-10-15T03:27:05;6.10;;;5.40;;
13026;SDS011;6580;42.680;23.324;2022-10-15T03:29:35;5.87;;;5.23;;
13026;SDS011;6580;42.680;23.324;2022-10-15T03:32:02;6.30;;;5.73;;
13026;SDS011;6580;42.680;23.324;2022-10-15T03:34:29;6.33;;;4.97;;
13026;SDS011;6580;42.680;23.324;2022-10-15T03:36:56;5.67;;;5.10;;
13026;SDS011;6580;42.680;23.324;2022-10-15T03:39:22;6.80;;;5.87;;
13026;SDS011;6580;42.680;23.324;2022-10-15T03:41:52;5.27;;;4.70;;
13026;SDS011;6580;42.680;23.324;2022-10-15T03:44:19;5.40;;;4.93;;
13026;SDS011;6580;42.680;23.324;2022-10-15T03:46:46;5.50;;;5.00;;
13026;SDS011;6580;42.680;23.324;2022-10-15T03:49:13;6.00;;;5.33;;
13026;SDS011;6580;42.680;23.324;2022-10-15T03:51:40;6.07;;;5.47;;
13026;SDS011;6580;42.680;23.324;2022-10-15T03:54:07;5.90;;;5.23;;
13026;SDS011;6580;42.680;23.324;2022-10-15T03:56:35;6.03;;;5.47;;
13026;SDS011;6580;42.680;23.324;2022-10-15T03:59:03;6.03;;;5.47;;
13026;SDS011;6580;42.680;23.324;2022-10-15T04:01:30;6.07;;;5.47;;
13026;SDS011;6580;42.680;23.324;2022-10-15T04:03:56;5.97;;;5.37;;
13026;SDS011;6580;42.680;23.324;2022-10-15T04:06:23;6.30;;;5.80;;
13026;SDS011;6580;42.680;23.324;2022-10-15T04:08:51;7.70;;;5.43;;
13026;SDS011;6580;42.680;23.324;2022-10-15T04:11:18;6.43;;;5.67;;
13026;SDS011;6580;42.680;23.324;2022-10-15T04:13:47;6.07;;;5.47;;
13026;SDS011;6580;42.680;23.324;2022-10-15T04:16:16;6.17;;;5.53;;
13026;SDS011;6580;42.680;23.324;2022-10-15T04:18:43;6.67;;;5.57;;
13026;SDS011;6580;42.680;23.324;2022-10-15T04:21:10;9.10;;;5.80;;
13026;SDS011;6580;42.680;23.324;2022-10-15T04:23:37;6.27;;;5.67;;
13026;SDS011;6580;42.680;23.324;2022-10-15T04:26:04;6.23;;;5.73;;
13026;SDS011;6580;42.680;23.324;2022-10-15T04:28:31;6.17;;;5.57;;
13026;SDS011;6580;42.680;23.324;2022-10-15T04:31:01;6.53;;;5.80;;
13026;SDS011;6580;42.680;23.324;2022-10-15T04:33:30;7.43;;;5.60;;
13026;SDS011;6580;42.680;23.324;2022-10-15T04:35:58;6.37;;;5.77;;
13026;SDS011;6580;42.680;23.324;2022-10-15T04:38:25;7.20;;;6.47;;
13026;SDS011;6580;42.680;23.324;2022-10-15T04:40:59;7.20;;;6.50;;
13026;SDS011;6580;42.680;23.324;2022-10-15T04:43:27;6.97;;;6.17;;
13026;SDS011;6580;42.680;23.324;2022-10-15T04:45:55;7.10;;;6.40;;
13026;SDS011;6580;42.680;23.324;2022-10-15T04:48:23;7.80;;;6.37;;
13026;SDS011;6580;42.680;23.324;2022-10-15T04:50:52;6.63;;;6.00;;
13026;SDS011;6580;42.680;23.324;2022-10-15T04:53:19;9.40;;;6.03;;
13026;SDS011;6580;42.680;23.324;2022-10-15T04:55:46;6.90;;;5.80;;
13026;SDS011;6580;42.680;23.324;2022-10-15T04:58:13;7.27;;;6.23;;
13026;SDS011;6580;42.680;23.324;2022-10-15T05:00:40;6.57;;;5.97;;
13026;SDS011;6580;42.680;23.324;2022-10-15T05:03:07;7.50;;;6.67;;
13026;SDS011;6580;42.680;23.324;2022-10-15T05:05:35;6.70;;;6.00;;
13026;SDS011;6580;42.680;23.324;2022-10-15T05:08:03;7.87;;;6.30;;
13026;SDS011;6580;42.680;23.324;2022-10-15T05:10:31;6.27;;;5.73;;
13026;SDS011;6580;42.680;23.324;2022-10-15T05:12:57;7.93;;;6.63;;
13026;SDS011;6580;42.680;23.324;2022-10-15T05:15:25;6.47;;;5.87;;
13026;SDS011;6580;42.680;23.324;2022-10-15T05:17:52;7.30;;;6.17;;
13026;SDS011;6580;42.680;23.324;2022-10-15T05:20:20;6.83;;;6.13;;
13026;SDS011;6580;42.680;23.324;2022-10-15T05:22:47;7.60;;;6.47;;
13026;SDS011;6580;42.680;23.324;2022-10-15T05:25:15;6.80;;;6.20;;
13026;SDS011;6580;42.680;23.324;2022-10-15T05:27:42;6.53;;;5.93;;
13026;SDS011;6580;42.680;23.324;2022-10-15T05:30:09;7.10;;;6.10;;
13026;SDS011;6580;42.680;23.324;2022-10-15T05:32:37;7.17;;;6.27;;
13026;SDS011;6580;42.680;23.324;2022-10-15T05:35:04;8.03;;;6.53;;
13026;SDS011;6580;42.680;23.324;2022-10-15T05:37:31;6.93;;;6.17;;
13026;SDS011;6580;42.680;23.324;2022-10-15T05:39:59;7.33;;;6.53;;
13026;SDS011;6580;42.680;23.324;2022-10-15T05:42:27;8.93;;;5.80;;
13026;SDS011;6580;42.680;23.324;2022-10-15T05:44:54;7.70;;;6.60;;
13026;SDS011;6580;42.680;23.324;2022-10-15T05:47:21;6.73;;;6.13;;
13026;SDS011;6580;42.680;23.324;2022-10-15T05:49:48;8.27;;;6.53;;
13026;SDS011;6580;42.680;23.324;2022-10-15T05:52:15;8.67;;;6.80;;
13026;SDS011;6580;42.680;23.324;2022-10-15T05:54:42;7.17;;;6.47;;
13026;SDS011;6580;42.680;23.324;2022-10-15T05:57:10;9.43;;;7.20;;
13026;SDS011;6580;42.680;23.324;2022-10-15T05:59:39;7.37;;;6.67;;
13026;SDS011;6580;42.680;23.324;2022-10-15T06:02:07;8.57;;;6.20;;
13026;SDS011;6580;42.680;23.324;2022-10-15T06:04:40;6.57;;;6.00;;
13026;SDS011;6580;42.680;23.324;2022-10-15T06:07:07;7.30;;;6.60;;
13026;SDS011;6580;42.680;23.324;2022-10-15T06:09:34;7.47;;;6.33;;
13026;SDS011;6580;42.680;23.324;2022-10-15T06:12:01;12.20;;;8.10;;
13026;SDS011;6580;42.680;23.324;2022-10-15T06:14:28;7.67;;;6.87;;
13026;SDS011;6580;42.680;23.324;2022-10-15T06:16:56;9.60;;;6.50;;
13026;SDS011;6580;42.680;23.324;2022-10-15T06:19:23;7.77;;;7.00;;
13026;SDS011;6580;42.680;23.324;2022-10-15T06:21:50;9.47;;;6.87;;
13026;SDS011;6580;42.680;23.324;2022-10-15T06:24:17;8.87;;;6.77;;
13026;SDS011;6580;42.680;23.324;2022-10-15T06:26:44;8.97;;;7.13;;
13026;SDS011;6580;42.680;23.324;2022-10-15T06:29:10;9.07;;;6.87;;
13026;SDS011;6580;42.680;23.324;2022-10-15T06:31:38;10.03;;;8.40;;
13026;SDS011;6580;42.680;23.324;2022-10-15T06:34:06;7.23;;;6.47;;
13026;SDS011;6580;42.680;23.324;2022-10-15T06:36:33;8.53;;;6.37;;
13026;SDS011;6580;42.680;23.324;2022-10-15T06:38:59;8.10;;;5.90;;
13026;SDS011;6580;42.680;23.324;2022-10-15T06:41:35;9.63;;;7.10;;
13026;SDS011;6580;42.680;23.324;2022-10-15T06:44:01;6.80;;;6.20;;
13026;SDS011;6580;42.680;23.324;2022-10-15T06:46:28;7.47;;;6.77;;
13026;SDS011;6580;42.680;23.324;2022-10-15T06:48:56;7.37;;;6.77;;
13026;SDS011;6580;42.680;23.324;2022-10-15T06:51:24;9.67;;;6.97;;
13026;SDS011;6580;42.680;23.324;2022-10-15T06:53:51;8.10;;;7.30;;
13026;SDS011;6580;42.680;23.324;2022-10-15T06:56:18;12.23;;;7.07;;
13026;SDS011;6580;42.680;23.324;2022-10-15T06:58:45;7.10;;;6.17;;
13026;SDS011;6580;42.680;23.324;2022-10-15T07:01:12;7.50;;;6.70;;
13026;SDS011;6580;42.680;23.324;2022-10-15T07:03:39;7.77;;;5.90;;
13026;SDS011;6580;42.680;23.324;2022-10-15T07:06:06;8.63;;;6.60;;
13026;SDS011;6580;42.680;23.324;2022-10-15T07:08:37;8.20;;;6.17;;
13026;SDS011;6580;42.680;23.324;2022-10-15T07:11:04;8.57;;;6.17;;
13026;SDS011;6580;42.680;23.324;2022-10-15T07:13:32;8.20;;;7.37;;
13026;SDS011;6580;42.680;23.324;2022-10-15T07:16:02;7.33;;;5.93;;
13026;SDS011;6580;42.680;23.324;2022-10-15T07:18:30;7.90;;;6.57;;
13026;SDS011;6580;42.680;23.324;2022-10-15T07:20:57;7.57;;;6.30;;
13026;SDS011;6580;42.680;23.324;2022-10-15T07:23:25;7.47;;;6.20;;
13026;SDS011;6580;42.680;23.324;2022-10-15T07:25:55;7.53;;;6.27;;
13026;SDS011;6580;42.680;23.324;2022-10-15T07:28:22;6.37;;;5.70;;
13026;SDS011;6580;42.680;23.324;2022-10-15T07:30:52;6.37;;;5.47;;
13026;SDS011;6580;42.680;23.324;2022-10-15T07:33:19;7.27;;;5.67;;
13026;SDS011;6580;42.680;23.324;2022-10-15T07:35:46;6.77;;;5.40;;
13026;SDS011;6580;42.680;23.324;2022-10-15T07:38:13;6.40;;;5.40;;
13026;SDS011;6580;42.680;23.324;2022-10-15T07:40:42;8.03;;;5.77;;
13026;SDS011;6580;42.680;23.324;2022-10-15T07:43:12;6.23;;;5.50;;
13026;SDS011;6580;42.680;23.324;2022-10-15T07:45:42;7.23;;;5.57;;
13026;SDS011;6580;42.680;23.324;2022-10-15T07:48:13;11.43;;;5.80;;
13026;SDS011;6580;42.680;23.324;2022-10-15T07:50:40;6.07;;;5.40;;
13026;SDS011;6580;42.680;23.324;2022-10-15T07:53:07;9.10;;;5.80;;
13026;SDS011;6580;42.680;23.324;2022-10-15T07:55:34;6.10;;;5.00;;
13026;SDS011;6580;42.680;23.324;2022-10-15T07:58:01;6.50;;;5.90;;
13026;SDS011;6580;42.680;23.324;2022-10-15T08:00:35;6.00;;;5.40;;
13026;SDS011;6580;42.680;23.324;2022-10-15T08:03:03;6.67;;;5.13;;
13026;SDS011;6580;42.680;23.324;2022-10-15T08:05:29;7.50;;;5.23;;
13026;SDS011;6580;42.680;23.324;2022-10-15T08:07:56;7.77;;;5.10;;
13026;SDS011;6580;42.680;23.324;2022-10-15T08:10:23;6.73;;;5.30;;
13026;SDS011;6580;42.680;23.324;2022-10-15T08:12:50;6.23;;;5.63;;
13026;SDS011;6580;42.680;23.324;2022-10-15T08:15:17;5.80;;;5.20;;
13026;SDS011;6580;42.680;23.324;2022-10-15T08:17:46;5.70;;;5.20;;
13026;SDS011;6580;42.680;23.324;2022-10-15T08:20:14;5.72;;;4.95;;
13026;SDS011;6580;42.680;23.324;2022-10-15T08:22:45;6.72;;;5.13;;
13026;SDS011;6580;42.680;23.324;2022-10-15T08:25:12;5.75;;;5.25;;
13026;SDS011;6580;42.680;23.324;2022-10-15T08:27:41;7.00;;;4.85;;
13026;SDS011;6580;42.680;23.324;2022-10-15T08:30:09;5.45;;;4.95;;
13026;SDS011;6580;42.680;23.324;2022-10-15T08:32:38;7.03;;;4.90;;
13026;SDS011;6580;42.680;23.324;2022-10-15T08:35:06;5.85;;;5.28;;
13026;SDS011;6580;42.680;23.324;2022-10-15T08:37:34;6.70;;;5.38;;
13026;SDS011;6580;42.680;23.324;2022-10-15T08:40:01;5.47;;;4.97;;
13026;SDS011;6580;42.680;23.324;2022-10-15T08:42:31;6.78;;;5.40;;
13026;SDS011;6580;42.680;23.324;2022-10-15T08:45:03;7.55;;;5.03;;
13026;SDS011;6580;42.680;23.324;2022-10-15T08:47:37;5.30;;;4.82;;
13026;SDS011;6580;42.680;23.324;2022-10-15T08:50:16;5.43;;;4.93;;
13026;SDS011;6580;42.680;23.324;2022-10-15T08:52:51;6.72;;;5.13;;
13026;SDS011;6580;42.680;23.324;2022-10-15T08:55:20;7.55;;;5.97;;
13026;SDS011;6580;42.680;23.324;2022-10-15T08:57:51;5.13;;;4.65;;
13026;SDS011;6580;42.680;23.324;2022-10-15T09:00:22;6.05;;;5.13;;
13026;SDS011;6580;42.680;23.324;2022-10-15T09:02:53;6.07;;;5.47;;
13026;SDS011;6580;42.680;23.324;2022-10-15T09:05:33;5.00;;;4.55;;
13026;SDS011;6580;42.680;23.324;2022-10-15T09:08:09;4.88;;;4.35;;
13026;SDS011;6580;42.680;23.324;2022-10-15T09:10:49;5.40;;;4.90;;
13026;SDS011;6580;42.680;23.324;2022-10-15T09:13:20;5.05;;;4.65;;
13026;SDS011;6580;42.680;23.324;2022-10-15T09:15:52;4.70;;;4.30;;
13026;SDS011;6580;42.680;23.324;2022-10-15T09:18:26;4.85;;;4.45;;
13026;SDS011;6580;42.680;23.324;2022-10-15T09:20:59;5.30;;;4.80;;
13026;SDS011;6580;42.680;23.324;2022-10-15T09:23:34;4.55;;;4.03;;
13026;SDS011;6580;42.680;23.324;2022-10-15T09:26:05;5.32;;;4.63;;
13026;SDS011;6580;42.680;23.324;2022-10-15T09:28:43;10.32;;;5.18;;
13026;SDS011;6580;42.680;23.324;2022-10-15T09:31:15;4.60;;;4.20;;
13026;SDS011;6580;42.680;23.324;2022-10-15T09:33:47;4.78;;;4.25;;
13026;SDS011;6580;42.680;23.324;2022-10-15T09:36:24;4.38;;;3.97;;
13026;SDS011;6580;42.680;23.324;2022-10-15T09:39:02;5.88;;;4.88;;
13026;SDS011;6580;42.680;23.324;2022-10-15T09:41:41;4.68;;;4.05;;
13026;SDS011;6580;42.680;23.324;2022-10-15T09:44:21;4.35;;;3.92;;
13026;SDS011;6580;42.680;23.324;2022-10-15T09:46:50;4.90;;;4.13;;
13026;SDS011;6580;42.680;23.324;2022-10-15T09:49:19;4.18;;;3.80;;
13026;SDS011;6580;42.680;23.324;2022-10-15T09:51:52;4.68;;;4.25;;
13026;SDS011;6580;42.680;23.324;2022-10-15T09:54:30;4.60;;;4.28;;
13026;SDS011;6580;42.680;23.324;2022-10-15T09:57:05;4.90;;;4.50;;
13026;SDS011;6580;42.680;23.324;2022-10-15T09:59:35;6.43;;;4.95;;
13026;SDS011;6580;42.680;23.324;2022-10-15T10:02:03;5.10;;;4.70;;
13026;SDS011;6580;42.680;23.324;2022-10-15T10:04:42;4.30;;;3.92;;
13026;SDS011;6580;42.680;23.324;2022-10-15T10:07:26;4.57;;;4.20;;
13026;SDS011;6580;42.680;23.324;2022-10-15T10:09:55;4.30;;;4.00;;
13026;SDS011;6580;42.680;23.324;2022-10-15T10:12:26;4.28;;;3.88;;
13026;SDS011;6580;42.680;23.324;2022-10-15T10:14:55;4.85;;;4.50;;
13026;SDS011;6580;42.680;23.324;2022-10-15T10:17:25;5.20;;;4.70;;
13026;SDS011;6580;42.680;23.324;2022-10-15T10:20:03;5.30;;;4.40;;
13026;SDS011;6580;42.680;23.324;2022-10-15T10:22:45;4.78;;;4.32;;
13026;SDS011;6580;42.680;23.324;2022-10-15T10:25:23;4.20;;;3.90;;
13026;SDS011;6580;42.680;23.324;2022-10-15T10:28:14;8.20;;;4.47;;
13026;SDS011;6580;42.680;23.324;2022-10-15T10:31:01;6.47;;;4.50;;
13026;SDS011;6580;42.680;23.324;2022-10-15T10:33:42;4.30;;;4.00;;
13026;SDS011;6580;42.680;23.324;2022-10-15T10:36:18;4.47;;;3.95;;
13026;SDS011;6580;42.680;23.324;2022-10-15T10:38:55;3.80;;;3.50;;
13026;SDS011;6580;42.680;23.324;2022-10-15T10:41:46;3.78;;;3.47;;
13026;SDS011;6580;42.680;23.324;2022-10-15T10:44:19;3.92;;;3.63;;
13026;SDS011;6580;42.680;23.324;2022-10-15T10:47:00;3.58;;;3.33;;
13026;SDS011;6580;42.680;23.324;2022-10-15T10:49:32;4.53;;;4.10;;
13026;SDS011;6580;42.680;23.324;2022-10-15T10:52:01;5.65;;;3.95;;
13026;SDS011;6580;42.680;23.324;2022-10-15T10:54:32;4.93;;;4.00;;
13026;SDS011;6580;42.680;23.324;2022-10-15T10:57:00;4.40;;;4.00;;
13026;SDS011;6580;42.680;23.324;2022-10-15T10:59:27;4.85;;;3.85;;
13026;SDS011;6580;42.680;23.324;2022-10-15T11:02:00;7.82;;;4.32;;
13026;SDS011;6580;42.680;23.324;2022-10-15T11:04:31;4.10;;;3.80;;
13026;SDS011;6580;42.680;23.324;2022-10-15T11:07:00;4.22;;;3.80;;
13026;SDS011;6580;42.680;23.324;2022-10-15T11:09:35;3.92;;;3.63;;
13026;SDS011;6580;42.680;23.324;2022-10-15T11:12:17;4.35;;;3.95;;
13026;SDS011;6580;42.680;23.324;2022-10-15T11:15:01;3.92;;;3.63;;
13026;SDS011;6580;42.680;23.324;2022-10-15T11:17:44;5.78;;;3.58;;
13026;SDS011;6580;42.680;23.324;2022-10-15T11:20:17;4.85;;;4.00;;
13026;SDS011;6580;42.680;23.324;2022-10-15T11:22:52;4.82;;;3.67;;
13026;SDS011;6580;42.680;23.324;2022-10-15T11:25:30;3.80;;;3.50;;
13026;SDS011;6580;42.680;23.324;2022-10-15T11:28:07;3.67;;;3.28;;
13026;SDS011;6580;42.680;23.324;2022-10-15T11:30:48;4.68;;;3.60;;
13026;SDS011;6580;42.680;23.324;2022-10-15T11:33:26;4.32;;;3.55;;
13026;SDS011;6580;42.680;23.324;2022-10-15T11:36:06;3.42;;;3.13;;
13026;SDS011;6580;42.680;23.324;2022-10-15T11:38:46;4.18;;;3.17;;
13026;SDS011;6580;42.680;23.324;2022-10-15T11:44:19;3.45;;;3.20;;
13026;SDS011;6580;42.680;23.324;2022-10-15T11:46:54;3.72;;;3.38;;
13026;SDS011;6580;42.680;23.324;2022-10-15T11:49:39;3.58;;;3.28;;
13026;SDS011;6580;42.680;23.324;2022-10-15T11:52:19;4.20;;;3.60;;
13026;SDS011;6580;42.680;23.324;2022-10-15T11:54:58;4.78;;;3.33;;
13026;SDS011;6580;42.680;23.324;2022-10-15T11:57:31;3.47;;;3.17;;
13026;SDS011;6580;42.680;23.324;2022-10-15T12:00:02;3.67;;;2.92;;
13026;SDS011;6580;42.680;23.324;2022-10-15T12:02:38;3.67;;;3.28;;
13026;SDS011;6580;42.680;23.324;2022-10-15T12:05:06;3.45;;;3.25;;
13026;SDS011;6580;42.680;23.324;2022-10-15T12:07:37;3.30;;;3.05;;
13026;SDS011;6580;42.680;23.324;2022-10-15T12:10:08;3.33;;;2.50;;
13026;SDS011;6580;42.680;23.324;2022-10-15T12:12:55;3.38;;;3.08;;
13026;SDS011;6580;42.680;23.324;2022-10-15T12:15:30;3.50;;;3.13;;
13026;SDS011;6580;42.680;23.324;2022-10-15T12:18:09;3.30;;;3.00;;
13026;SDS011;6580;42.680;23.324;2022-10-15T12:20:42;3.28;;;2.97;;
13026;SDS011;6580;42.680;23.324;2022-10-15T12:23:21;3.10;;;2.80;;
13026;SDS011;6580;42.680;23.324;2022-10-15T12:25:50;4.30;;;3.40;;
13026;SDS011;6580;42.680;23.324;2022-10-15T12:28:19;4.15;;;3.35;;
13026;SDS011;6580;42.680;23.324;2022-10-15T12:30:59;5.80;;;3.03;;
13026;SDS011;6580;42.680;23.324;2022-10-15T12:33:30;3.53;;;3.22;;
13026;SDS011;6580;42.680;23.324;2022-10-15T12:35:59;3.97;;;3.28;;
13026;SDS011;6580;42.680;23.324;2022-10-15T12:38:39;3.58;;;3.28;;
13026;SDS011;6580;42.680;23.324;2022-10-15T12:41:15;3.08;;;2.83;;
13026;SDS011;6580;42.680;23.324;2022-10-15T12:43:47;3.10;;;2.80;;
13026;SDS011;6580;42.680;23.324;2022-10-15T12:46:19;3.03;;;2.83;;
13026;SDS011;6580;42.680;23.324;2022-10-15T12:48:46;3.70;;;3.10;;
13026;SDS011;6580;42.680;23.324;2022-10-15T12:57:00;4.53;;;3.00;;
13026;SDS011;6580;42.680;23.324;2022-10-15T13:02:36;3.38;;;3.10;;
13026;SDS011;6580;42.680;23.324;2022-10-15T13:05:06;5.40;;;3.20;;
13026;SDS011;6580;42.680;23.324;2022-10-15T13:07:48;3.17;;;2.88;;
13026;SDS011;6580;42.680;23.324;2022-10-15T13:10:18;3.65;;;3.38;;
13026;SDS011;6580;42.680;23.324;2022-10-15T13:12:50;4.88;;;3.75;;
13026;SDS011;6580;42.680;23.324;2022-10-15T13:15:25;4.05;;;3.42;;
13026;SDS011;6580;42.680;23.324;2022-10-15T13:17:57;4.50;;;3.10;;
13026;SDS011;6580;42.680;23.324;2022-10-15T13:20:29;3.45;;;3.15;;
13026;SDS011;6580;42.680;23.324;2022-10-15T13:23:08;4.72;;;3.00;;
13026;SDS011;6580;42.680;23.324;2022-10-15T13:25:41;3.28;;;2.92;;
13026;SDS011;6580;42.680;23.324;2022-10-15T13:28:27;3.80;;;3.40;;
13026;SDS011;6580;42.680;23.324;2022-10-15T13:30:59;5.00;;;3.45;;
13026;SDS011;6580;42.680;23.324;2022-10-15T13:33:28;3.97;;;3.58;;
13026;SDS011;6580;42.680;23.324;2022-10-15T13:36:03;4.22;;;3.28;;
13026;SDS011;6580;42.680;23.324;2022-10-15T13:38:31;3.58;;;3.28;;
13026;SDS011;6580;42.680;23.324;2022-10-15T13:41:01;5.15;;;4.57;;
13026;SDS011;6580;42.680;23.324;2022-10-15T13:43:29;5.90;;;3.33;;
13026;SDS011;6580;42.680;23.324;2022-10-15T13:45:57;3.50;;;3.20;;
13026;SDS011;6580;42.680;23.324;2022-10-15T13:48:28;3.72;;;3.42;;
13026;SDS011;6580;42.680;23.324;2022-10-15T13:50:56;4.38;;;3.53;;
13026;SDS011;6580;42.680;23.324;2022-10-15T13:53:25;3.70;;;3.40;;
13026;SDS011;6580;42.680;23.324;2022-10-15T13:55:58;3.85;;;3.55;;
13026;SDS011;6580;42.680;23.324;2022-10-15T13:58:27;5.22;;;3.88;;
13026;SDS011;6580;42.680;23.324;2022-10-15T14:00:58;5.18;;;3.38;;
13026;SDS011;6580;42.680;23.324;2022-10-15T14:03:33;4.60;;;3.50;;
13026;SDS011;6580;42.680;23.324;2022-10-15T14:06:07;4.23;;;3.73;;
13026;SDS011;6580;42.680;23.324;2022-10-15T14:08:37;5.00;;;3.65;;
13026;SDS011;6580;42.680;23.324;2022-10-15T14:11:05;4.25;;;3.55;;
13026;SDS011;6580;42.680;23.324;2022-10-15T14:13:42;4.00;;;3.60;;
13026;SDS011;6580;42.680;23.324;2022-10-15T14:16:16;3.85;;;3.50;;
13026;SDS011;6580;42.680;23.324;2022-10-15T14:18:46;4.47;;;3.58;;
13026;SDS011;6580;42.680;23.324;2022-10-15T14:21:17;3.72;;;3.25;;
13026;SDS011;6580;42.680;23.324;2022-10-15T14:24:00;4.60;;;3.50;;
13026;SDS011;6580;42.680;23.324;2022-10-15T14:26:29;5.15;;;3.80;;
13026;SDS011;6580;42.680;23.324;2022-10-15T14:28:58;4.07;;;3.50;;
13026;SDS011;6580;42.680;23.324;2022-10-15T14:31:29;4.00;;;2.97;;
13026;SDS011;6580;42.680;23.324;2022-10-15T14:33:59;3.38;;;2.83;;
13026;SDS011;6580;42.680;23.324;2022-10-15T14:36:28;3.50;;;3.20;;
13026;SDS011;6580;42.680;23.324;2022-10-15T14:39:21;6.30;;;3.50;;
13026;SDS011;6580;42.680;23.324;2022-10-15T14:41:56;3.40;;;3.10;;
13026;SDS011;6580;42.680;23.324;2022-10-15T14:44:24;4.40;;;3.75;;
13026;SDS011;6580;42.680;23.324;2022-10-15T14:46:58;4.75;;;3.50;;
13026;SDS011;6580;42.680;23.324;2022-10-15T14:49:30;3.13;;;2.92;;
13026;SDS011;6580;42.680;23.324;2022-10-15T14:52:02;4.80;;;3.53;;
13026;SDS011;6580;42.680;23.324;2022-10-15T14:54:34;6.03;;;4.00;;
13026;SDS011;6580;42.680;23.324;2022-10-15T14:57:04;3.92;;;3.53;;
13026;SDS011;6580;42.680;23.324;2022-10-15T14:59:42;4.47;;;4.05;;
13026;SDS011;6580;42.680;23.324;2022-10-15T15:02:12;4.93;;;3.43;;
13026;SDS011;6580;42.680;23.324;2022-10-15T15:04:42;3.78;;;3.40;;
13026;SDS011;6580;42.680;23.324;2022-10-15T15:07:12;3.10;;;2.80;;
13026;SDS011;6580;42.680;23.324;2022-10-15T15:09:41;3.58;;;3.28;;
13026;SDS011;6580;42.680;23.324;2022-10-15T15:12:11;3.92;;;3.42;;
13026;SDS011;6580;42.680;23.324;2022-10-15T15:14:41;4.97;;;3.60;;
13026;SDS011;6580;42.680;23.324;2022-10-15T15:17:14;3.10;;;2.80;;
13026;SDS011;6580;42.680;23.324;2022-10-15T15:19:42;6.68;;;3.63;;
13026;SDS011;6580;42.680;23.324;2022-10-15T15:22:09;5.33;;;3.53;;
13026;SDS011;6580;42.680;23.324;2022-10-15T15:24:39;4.72;;;3.50;;